createdAt,value
2022-11-17T00:00:19.666Z,85.61
2022-11-17T00:02:47.927Z,86.01
2022-11-17T00:05:15.218Z,85.79
2022-11-17T00:07:44.809Z,85.80
2022-11-17T00:10:15.439Z,85.74
2022-11-17T00:13:01.434Z,86.01
2022-11-17T00:15:28.633Z,87.70
2022-11-17T00:18:14.035Z,88.52
2022-11-17T00:21:00.460Z,88.99
2022-11-17T00:23:47.176Z,88.94
2022-11-17T00:26:19.154Z,89.70
2022-11-17T00:28:46.220Z,89.72
2022-11-17T00:31:33.185Z,90.12
2022-11-17T00:34:06.444Z,89.58
2022-11-17T00:36:40.072Z,89.16
2022-11-17T00:39:08.426Z,88.80
2022-11-17T00:41:35.814Z,88.55
2022-11-17T00:44:02.698Z,88.88
2022-11-17T00:46:30.101Z,88.64
2022-11-17T00:48:56.982Z,88.20
2022-11-17T00:51:25.546Z,88.20
2022-11-17T00:53:52.755Z,88.14
2022-11-17T00:56:19.736Z,87.59
2022-11-17T00:58:46.757Z,87.74
2022-11-17T01:01:14.380Z,87.45
2022-11-17T01:03:41.562Z,87.79
2022-11-17T01:06:18.539Z,87.13
2022-11-17T01:08:45.821Z,87.10
2022-11-17T01:11:13.942Z,87.61
2022-11-17T01:13:42.070Z,87.32
2022-11-17T01:16:14.373Z,87.33
2022-11-17T01:18:42.507Z,87.54
2022-11-17T01:21:21.870Z,88.22
2022-11-17T01:23:51.469Z,88.33
2022-11-17T01:26:20.681Z,88.65
2022-11-17T01:28:48.765Z,89.01
2022-11-17T01:31:20.775Z,88.45
2022-11-17T01:33:48.692Z,88.47
2022-11-17T01:36:22.124Z,88.03
2022-11-17T01:38:49.459Z,87.66
2022-11-17T01:41:25.184Z,88.46
2022-11-17T01:43:54.965Z,88.45
2022-11-17T01:46:37.221Z,89.85
2022-11-17T01:49:04.040Z,89.90
2022-11-17T01:51:35.356Z,90.14
2022-11-17T01:54:02.937Z,89.94
2022-11-17T01:56:38.917Z,89.42
2022-11-17T01:59:11.550Z,89.17
2022-11-17T02:01:55.619Z,89.65
2022-11-17T02:04:26.659Z,89.19
2022-11-17T02:07:14.493Z,89.43
2022-11-17T02:09:42.581Z,88.83
2022-11-17T02:12:12.952Z,89.14
2022-11-17T02:14:40.521Z,89.19
2022-11-17T02:17:14.048Z,89.30
2022-11-17T02:19:44.382Z,89.95
2022-11-17T02:22:33.746Z,90.26
2022-11-17T02:25:15.714Z,89.40
2022-11-17T02:28:11.458Z,90.46
2022-11-17T02:30:49.200Z,89.98
2022-11-17T02:33:37.811Z,89.47
2022-11-17T02:36:11.820Z,89.77
2022-11-17T02:38:56.174Z,89.47
2022-11-17T02:41:58.378Z,89.34
2022-11-17T02:44:33.707Z,89.54
2022-11-17T02:47:20.286Z,89.03
2022-11-17T02:49:53.804Z,88.89
2022-11-17T02:52:22.027Z,88.68
2022-11-17T02:54:48.929Z,87.90
2022-11-17T02:57:33.420Z,87.95
2022-11-17T03:00:04.238Z,87.87
2022-11-17T03:02:53.068Z,88.18
2022-11-17T03:05:26.841Z,88.60
2022-11-17T03:08:11.990Z,89.56
2022-11-17T03:11:02.959Z,89.96
2022-11-17T03:13:48.471Z,90.23
2022-11-17T03:16:27.682Z,90.73
2022-11-17T03:19:09.656Z,90.54
2022-11-17T03:22:09.407Z,91.01
2022-11-17T03:24:49.424Z,91.35
2022-11-17T03:27:25.610Z,91.33
2022-11-17T03:29:59.787Z,91.40
2022-11-17T03:32:31.004Z,91.43
2022-11-17T03:35:03.305Z,91.20
2022-11-17T03:37:34.064Z,90.83
2022-11-17T03:40:09.045Z,91.23
2022-11-17T03:42:40.931Z,91.77
2022-11-17T03:45:22.078Z,91.49
2022-11-17T03:47:53.748Z,90.41
2022-11-17T03:50:30.321Z,90.66
2022-11-17T03:52:57.514Z,90.03
2022-11-17T03:55:30.961Z,90.54
2022-11-17T03:58:05.276Z,90.06
2022-11-17T04:00:34.956Z,89.75
2022-11-17T04:03:01.808Z,90.03
2022-11-17T04:05:28.616Z,89.48
2022-11-17T04:07:55.514Z,89.29
2022-11-17T04:10:25.854Z,89.57
2022-11-17T04:13:12.807Z,89.91
2022-11-17T04:15:58.963Z,89.95
2022-11-17T04:18:26.656Z,89.65
2022-11-17T04:20:55.918Z,90.07
2022-11-17T04:23:24.044Z,90.90
2022-11-17T04:26:12.911Z,91.07
2022-11-17T04:28:50.917Z,92.29
2022-11-17T04:31:38.044Z,91.65
2022-11-17T04:34:06.135Z,91.44
2022-11-17T04:36:37.186Z,91.10
2022-11-17T04:39:04.444Z,91.85
2022-11-17T04:41:49.823Z,92.08
2022-11-17T04:44:18.177Z,91.90
2022-11-17T04:46:46.271Z,92.13
2022-11-17T04:49:15.090Z,91.72
2022-11-17T04:51:42.591Z,91.39
2022-11-17T04:54:11.056Z,91.23
2022-11-17T04:56:39.632Z,90.82
2022-11-17T04:59:07.232Z,90.88
2022-11-17T05:01:34.388Z,90.01
2022-11-17T05:04:13.179Z,88.86
2022-11-17T05:06:43.812Z,90.48
2022-11-17T05:09:13.745Z,90.35
2022-11-17T05:12:00.320Z,90.21
2022-11-17T05:14:28.623Z,89.72
2022-11-17T05:17:11.952Z,89.83
2022-11-17T05:19:40.931Z,89.81
2022-11-17T05:22:27.857Z,88.72
2022-11-17T05:24:56.259Z,88.72
2022-11-17T05:27:23.727Z,89.62
2022-11-17T05:29:50.580Z,89.77
2022-11-17T05:32:17.893Z,89.81
2022-11-17T05:34:45.127Z,89.67
2022-11-17T05:37:12.314Z,89.38
2022-11-17T05:39:39.181Z,89.11
2022-11-17T05:42:06.260Z,89.27
2022-11-17T05:44:33.095Z,89.66
2022-11-17T05:47:02.410Z,89.32
2022-11-17T05:49:33.364Z,89.71
2022-11-17T05:52:00.933Z,89.05
2022-11-17T05:54:27.869Z,88.84
2022-11-17T05:57:01.065Z,88.13
2022-11-17T05:59:46.062Z,87.94
2022-11-17T06:02:21.517Z,88.40
2022-11-17T06:04:49.700Z,88.69
2022-11-17T06:07:18.080Z,88.39
2022-11-17T06:09:46.371Z,88.58
2022-11-17T06:12:13.420Z,88.43
2022-11-17T06:14:40.273Z,88.25
2022-11-17T06:17:22.130Z,88.16
2022-11-17T06:19:57.962Z,88.56
2022-11-17T06:22:27.608Z,88.18
2022-11-17T06:24:55.611Z,88.41
2022-11-17T06:27:23.274Z,88.46
2022-11-17T06:29:50.455Z,87.64
2022-11-17T06:32:18.286Z,88.05
2022-11-17T06:34:54.832Z,89.60
2022-11-17T06:37:25.079Z,89.68
2022-11-17T06:39:52.423Z,89.95
2022-11-17T06:42:19.605Z,89.77
2022-11-17T06:44:46.570Z,89.25
2022-11-17T06:47:13.456Z,90.06
2022-11-17T06:49:40.380Z,89.65
2022-11-17T06:52:09.280Z,89.45
2022-11-17T06:54:36.240Z,89.42
2022-11-17T06:57:03.993Z,89.21
2022-11-17T06:59:30.909Z,89.19
2022-11-17T07:01:57.757Z,89.30
2022-11-17T07:08:00.395Z,89.49
2022-11-17T07:10:28.574Z,89.14
2022-11-17T07:12:58.575Z,89.26
2022-11-17T07:15:27.200Z,89.00
2022-11-17T07:17:54.327Z,89.54
2022-11-17T07:20:21.521Z,90.12
2022-11-17T07:22:48.803Z,90.85
2022-11-17T07:25:21.055Z,90.52
2022-11-17T07:27:57.188Z,90.59
2022-11-17T07:30:24.240Z,90.29
2022-11-17T07:32:54.641Z,90.48
2022-11-17T07:35:22.089Z,90.28
2022-11-17T07:37:49.144Z,90.19
2022-11-17T07:40:16.353Z,90.17
2022-11-17T07:42:48.913Z,90.97
2022-11-17T07:45:17.102Z,90.00
2022-11-17T07:47:44.104Z,90.03
2022-11-17T07:50:11.606Z,88.83
2022-11-17T07:52:41.398Z,88.97
2022-11-17T07:55:08.785Z,88.73
2022-11-17T07:57:36.728Z,88.84
2022-11-17T08:00:07.556Z,88.94
2022-11-17T08:02:43.846Z,88.30
2022-11-17T08:05:12.402Z,88.19
2022-11-17T08:07:39.557Z,88.13
2022-11-17T08:10:08.312Z,88.33
2022-11-17T08:12:35.372Z,88.64
2022-11-17T08:15:02.505Z,88.65
2022-11-17T08:17:31.573Z,88.92
2022-11-17T08:20:00.956Z,88.89
2022-11-17T08:22:29.899Z,88.47
2022-11-17T08:24:56.877Z,88.47
2022-11-17T08:27:25.086Z,89.23
2022-11-17T08:29:52.871Z,88.92
2022-11-17T08:32:20.449Z,88.19
2022-11-17T08:34:47.744Z,87.91
2022-11-17T08:37:15.004Z,88.30
2022-11-17T08:39:42.046Z,88.75
2022-11-17T08:42:09.142Z,89.06
2022-11-17T08:44:37.495Z,89.44
2022-11-17T08:47:04.414Z,89.75
2022-11-17T08:49:31.250Z,89.47
2022-11-17T08:51:58.177Z,89.57
2022-11-17T08:54:25.159Z,89.04
2022-11-17T08:56:57.353Z,89.41
2022-11-17T08:59:26.060Z,89.81
2022-11-17T09:01:53.299Z,90.35
2022-11-17T09:04:20.412Z,91.13
2022-11-17T09:06:47.379Z,91.98
2022-11-17T09:09:17.083Z,91.97
2022-11-17T09:11:44.023Z,92.20
2022-11-17T09:14:10.972Z,92.68
2022-11-17T09:16:38.403Z,92.07
2022-11-17T09:19:05.843Z,92.77
2022-11-17T09:21:34.078Z,92.43
2022-11-17T09:24:01.337Z,91.78
2022-11-17T09:26:28.335Z,92.23
2022-11-17T09:28:55.495Z,92.83
2022-11-17T09:31:23.682Z,92.28
2022-11-17T09:33:50.833Z,92.77
2022-11-17T09:36:18.323Z,92.97
2022-11-17T09:38:46.810Z,92.69
2022-11-17T09:41:16.575Z,92.26
2022-11-17T09:43:49.705Z,91.41
2022-11-17T09:46:25.666Z,90.94
2022-11-17T09:49:12.429Z,90.37
2022-11-17T09:51:44.965Z,90.32
2022-11-17T09:54:43.232Z,90.90
2022-11-17T09:57:37.441Z,90.82
2022-11-17T10:00:19.642Z,91.04
2022-11-17T10:02:46.846Z,90.49
2022-11-17T10:05:28.055Z,90.62
2022-11-17T10:08:00.393Z,90.79
2022-11-17T10:10:45.618Z,90.22
2022-11-17T10:13:33.823Z,91.14
2022-11-17T10:16:08.003Z,90.18
2022-11-17T10:18:38.341Z,89.80
2022-11-17T10:21:07.349Z,90.24
2022-11-17T10:23:41.156Z,90.64
2022-11-17T10:26:16.009Z,90.93
2022-11-17T10:28:47.183Z,90.77
2022-11-17T10:31:20.397Z,90.98
2022-11-17T10:33:50.314Z,91.15
2022-11-17T10:36:29.049Z,90.50
2022-11-17T10:38:59.316Z,90.69
2022-11-17T10:41:40.910Z,91.44
2022-11-17T10:44:30.664Z,91.64
2022-11-17T10:47:04.763Z,91.64
2022-11-17T10:49:35.259Z,90.49
2022-11-17T10:52:06.983Z,89.05
2022-11-17T10:54:34.105Z,88.14
2022-11-17T10:57:05.627Z,88.40
2022-11-17T10:59:44.378Z,87.88
2022-11-17T11:02:31.027Z,86.73
2022-11-17T11:05:14.092Z,86.87
2022-11-17T11:07:41.753Z,87.01
2022-11-17T11:10:20.591Z,85.14
2022-11-17T11:13:09.093Z,84.89
2022-11-17T11:15:37.291Z,83.70
2022-11-17T11:18:15.876Z,84.00
2022-11-17T11:21:13.420Z,83.35
2022-11-17T11:23:46.410Z,83.40
2022-11-17T11:26:25.562Z,82.82
2022-11-17T11:29:07.847Z,81.76
2022-11-17T11:32:11.666Z,81.18
2022-11-17T11:34:54.395Z,80.95
2022-11-17T11:37:28.628Z,80.87
2022-11-17T11:40:27.184Z,80.34
2022-11-17T11:43:24.456Z,79.75
2022-11-17T11:46:01.357Z,79.54
2022-11-17T11:48:57.131Z,80.69
2022-11-17T11:51:38.375Z,81.67
2022-11-17T11:54:30.975Z,81.13
2022-11-17T11:56:58.145Z,80.35
2022-11-17T11:59:45.679Z,79.44
2022-11-17T12:02:12.774Z,78.31
2022-11-17T12:04:52.673Z,77.95
2022-11-17T12:07:41.329Z,78.10
2022-11-17T12:10:30.069Z,78.23
2022-11-17T12:13:00.327Z,78.13
2022-11-17T12:15:27.745Z,78.43
2022-11-17T12:18:22.353Z,79.13
2022-11-17T12:20:57.814Z,78.70
2022-11-17T12:23:31.037Z,78.02
2022-11-17T12:26:03.109Z,79.64
2022-11-17T12:28:40.772Z,78.94
2022-11-17T12:31:13.110Z,78.08
2022-11-17T12:33:52.016Z,77.83
2022-11-17T12:36:30.193Z,78.07
2022-11-17T12:38:59.977Z,77.53
2022-11-17T12:41:48.645Z,77.20
2022-11-17T12:44:37.471Z,76.73
2022-11-17T12:47:15.272Z,76.68
2022-11-17T12:49:57.296Z,76.40
2022-11-17T12:52:52.111Z,76.20
2022-11-17T12:55:42.299Z,76.62
2022-11-17T12:58:10.836Z,76.82
2022-11-17T13:00:53.383Z,75.79
2022-11-17T13:03:36.902Z,76.60
2022-11-17T13:06:33.747Z,77.01
2022-11-17T13:09:01.124Z,76.46
2022-11-17T13:11:29.003Z,76.51
2022-11-17T13:14:14.477Z,76.38
2022-11-17T13:16:50.008Z,76.26
2022-11-17T13:19:40.428Z,76.09
2022-11-17T13:22:21.576Z,75.86
2022-11-17T13:24:50.722Z,76.14
2022-11-17T13:27:25.516Z,75.73
2022-11-17T13:29:53.335Z,75.83
2022-11-17T13:32:23.458Z,75.49
2022-11-17T13:34:59.965Z,75.14
2022-11-17T13:37:28.818Z,75.56
2022-11-17T13:40:20.354Z,76.15
2022-11-17T13:42:47.888Z,76.02
2022-11-17T13:45:16.072Z,76.17
2022-11-17T13:47:48.960Z,76.15
2022-11-17T13:50:21.716Z,76.61
2022-11-17T13:52:53.577Z,77.20
2022-11-17T13:55:21.881Z,77.34
2022-11-17T13:57:54.250Z,77.67
2022-11-17T14:00:22.974Z,77.84
2022-11-17T14:02:57.424Z,77.95
2022-11-17T14:05:27.620Z,79.04
2022-11-17T14:07:57.013Z,79.58
2022-11-17T14:10:33.119Z,80.33
2022-11-17T14:13:02.919Z,80.66
2022-11-17T14:15:53.284Z,80.59
2022-11-17T14:18:43.442Z,80.68
2022-11-17T14:21:16.867Z,81.33
2022-11-17T14:23:44.843Z,81.20
2022-11-17T14:26:17.907Z,81.45
2022-11-17T14:28:44.926Z,82.00
2022-11-17T14:31:13.904Z,82.73
2022-11-17T14:33:41.345Z,82.32
2022-11-17T14:36:16.608Z,83.19
2022-11-17T14:38:47.211Z,83.86
2022-11-17T14:41:18.289Z,83.57
2022-11-17T14:44:08.647Z,83.67
2022-11-17T14:46:35.906Z,83.96
2022-11-17T14:49:05.495Z,83.75
2022-11-17T14:51:33.099Z,84.31
2022-11-17T14:54:01.344Z,84.26
2022-11-17T14:56:28.295Z,84.67
2022-11-17T14:59:02.259Z,85.77
2022-11-17T15:01:31.773Z,85.10
2022-11-17T15:04:27.066Z,85.00
2022-11-17T15:07:17.053Z,85.00
2022-11-17T15:09:45.635Z,85.23
2022-11-17T15:12:12.562Z,85.46
2022-11-17T15:14:39.484Z,85.14
2022-11-17T15:17:11.296Z,86.04
2022-11-17T15:19:41.042Z,85.39
2022-11-17T15:22:07.945Z,85.59
2022-11-17T15:24:34.814Z,85.31
2022-11-17T15:27:02.132Z,85.30
2022-11-17T15:29:31.492Z,86.10
2022-11-17T15:31:58.415Z,86.09
2022-11-17T15:34:25.288Z,86.31
2022-11-17T15:36:52.563Z,85.74
2022-11-17T15:39:20.738Z,85.70
2022-11-17T15:41:48.875Z,85.06
2022-11-17T15:44:15.965Z,85.04
2022-11-17T15:46:47.079Z,84.93
2022-11-17T15:49:16.575Z,86.03
2022-11-17T15:51:44.355Z,85.72
2022-11-17T15:54:16.718Z,85.98
2022-11-17T15:56:47.448Z,85.71
2022-11-17T15:59:16.819Z,84.91
2022-11-17T16:01:44.797Z,84.66
2022-11-17T16:04:15.568Z,85.42
2022-11-17T16:06:44.500Z,85.32
2022-11-17T16:09:13.524Z,85.29
2022-11-17T16:11:41.247Z,85.26
2022-11-17T16:14:08.533Z,85.07
2022-11-17T16:16:37.470Z,85.21
2022-11-17T16:19:05.772Z,85.72
2022-11-17T16:21:33.004Z,86.39
2022-11-17T16:24:04.572Z,86.83
2022-11-17T16:26:31.773Z,86.46
2022-11-17T16:29:04.765Z,86.00
2022-11-17T16:31:34.003Z,85.25
2022-11-17T16:34:12.291Z,85.42
2022-11-17T16:36:41.619Z,84.62
2022-11-17T16:39:13.870Z,85.62
2022-11-17T16:41:43.036Z,84.90
2022-11-17T16:44:12.264Z,85.21
2022-11-17T16:46:42.817Z,85.81
2022-11-17T16:49:13.230Z,87.44
2022-11-17T16:51:46.185Z,87.63
2022-11-17T16:54:14.106Z,87.01
2022-11-17T16:56:41.109Z,86.99
2022-11-17T16:59:09.376Z,86.46
2022-11-17T17:01:36.454Z,86.29
2022-11-17T17:04:06.569Z,86.59
2022-11-17T17:06:34.755Z,86.63
2022-11-17T17:09:04.523Z,87.29
2022-11-17T17:11:34.165Z,87.91
2022-11-17T17:14:05.600Z,87.86
2022-11-17T17:16:35.039Z,87.83
2022-11-17T17:19:04.499Z,87.63
2022-11-17T17:21:32.772Z,88.43
2022-11-17T17:24:00.117Z,88.50
2022-11-17T17:26:29.539Z,88.19
2022-11-17T17:29:00.231Z,88.32
2022-11-17T17:31:32.205Z,88.14
2022-11-17T17:34:02.412Z,87.00
2022-11-17T17:36:30.551Z,86.23
2022-11-17T17:39:01.820Z,85.85
2022-11-17T17:41:34.369Z,85.65
2022-11-17T17:44:04.111Z,85.40
2022-11-17T17:46:33.739Z,85.36
2022-11-17T17:49:00.696Z,85.65
2022-11-17T17:51:29.252Z,85.27
2022-11-17T17:53:58.622Z,85.49
2022-11-17T17:56:25.864Z,86.01
2022-11-17T17:58:57.033Z,85.44
2022-11-17T18:01:28.978Z,85.38
2022-11-17T18:04:04.880Z,85.58
2022-11-17T18:06:41.607Z,85.25
2022-11-17T18:09:14.707Z,85.77
2022-11-17T18:11:47.991Z,86.04
2022-11-17T18:14:19.624Z,84.98
2022-11-17T18:16:46.704Z,84.04
2022-11-17T18:19:15.392Z,84.46
2022-11-17T18:21:43.399Z,84.97
2022-11-17T18:24:11.609Z,84.84
2022-11-17T18:26:40.900Z,84.96
2022-11-17T18:29:12.839Z,85.13
2022-11-17T18:31:39.844Z,85.45
2022-11-17T18:34:13.190Z,84.09
2022-11-17T18:36:40.646Z,84.27
2022-11-17T18:39:07.908Z,84.60
2022-11-17T18:41:35.995Z,85.10
2022-11-17T18:44:03.112Z,85.59
2022-11-17T18:46:32.555Z,85.29
2022-11-17T18:49:02.268Z,85.64
2022-11-17T18:51:31.454Z,85.13
2022-11-17T18:54:01.377Z,85.11
2022-11-17T18:56:32.030Z,84.59
2022-11-17T18:58:59.522Z,84.10
2022-11-17T19:01:28.860Z,84.23
2022-11-17T19:03:57.955Z,84.22
2022-11-17T19:06:25.836Z,84.20
2022-11-17T19:08:56.521Z,85.07
2022-11-17T19:11:23.682Z,84.86
2022-11-17T19:13:51.685Z,84.28
2022-11-17T19:16:24.834Z,84.27
2022-11-17T19:18:54.179Z,83.79
2022-11-17T19:21:26.792Z,83.23
2022-11-17T19:23:57.348Z,83.61
2022-11-17T19:26:29.566Z,83.72
2022-11-17T19:29:00.100Z,84.23
2022-11-17T19:31:28.266Z,83.43
2022-11-17T19:33:58.037Z,84.33
2022-11-17T19:36:30.420Z,84.79
2022-11-17T19:38:59.677Z,86.29
2022-11-17T19:41:29.213Z,87.57
2022-11-17T19:43:58.433Z,89.09
2022-11-17T19:46:28.959Z,90.31
2022-11-17T19:48:59.655Z,91.09
2022-11-17T19:51:29.416Z,91.80
2022-11-17T19:53:58.796Z,92.40
2022-11-17T19:56:26.883Z,92.71
2022-11-17T19:58:54.289Z,92.69
2022-11-17T20:01:24.171Z,93.80
2022-11-17T20:03:53.229Z,94.00
2022-11-17T20:06:25.152Z,94.28
2022-11-17T20:08:52.210Z,94.26
2022-11-17T20:11:23.350Z,94.73
2022-11-17T20:13:50.810Z,94.21
2022-11-17T20:16:21.573Z,94.42
2022-11-17T20:18:51.030Z,94.54
2022-11-17T20:21:18.963Z,93.97
2022-11-17T20:23:46.830Z,94.03
2022-11-17T20:26:18.794Z,93.11
2022-11-17T20:28:46.264Z,92.32
2022-11-17T20:31:21.517Z,90.85
2022-11-17T20:33:52.067Z,90.71
2022-11-17T20:36:20.934Z,91.00
2022-11-17T20:39:02.138Z,92.57
2022-11-17T20:41:30.223Z,92.35
2022-11-17T20:43:58.830Z,91.81
2022-11-17T20:46:26.353Z,90.76
2022-11-17T20:48:53.663Z,90.57
2022-11-17T20:51:23.315Z,89.52
2022-11-17T20:53:51.011Z,89.21
2022-11-17T20:56:18.839Z,89.39
2022-11-17T20:58:45.814Z,89.25
2022-11-17T21:01:20.675Z,88.30
2022-11-17T21:03:47.861Z,88.39
2022-11-17T21:06:16.014Z,88.12
2022-11-17T21:08:44.816Z,88.24
2022-11-17T21:11:32.905Z,88.20
2022-11-17T21:14:00.686Z,90.43
2022-11-17T21:16:27.871Z,89.79
2022-11-17T21:18:58.082Z,89.83
2022-11-17T21:21:28.923Z,89.70
2022-11-17T21:23:57.537Z,89.68
2022-11-17T21:26:24.797Z,90.17
2022-11-17T21:28:52.246Z,90.43
2022-11-17T21:31:22.322Z,91.51
2022-11-17T21:33:53.846Z,91.80
2022-11-17T21:36:22.201Z,93.92
2022-11-17T21:38:49.438Z,93.43
2022-11-17T21:41:25.178Z,93.42
2022-11-17T21:43:53.359Z,92.10
2022-11-17T21:46:25.031Z,91.15
2022-11-17T21:48:52.991Z,90.50
2022-11-17T21:51:35.355Z,90.34
2022-11-17T21:54:04.457Z,90.44
2022-11-17T21:56:32.229Z,89.99
2022-11-17T21:59:01.987Z,89.96
2022-11-17T22:01:29.656Z,89.09
2022-11-17T22:03:56.791Z,89.33
2022-11-17T22:06:25.611Z,88.11
2022-11-17T22:08:54.265Z,88.21
2022-11-17T22:11:36.717Z,88.23
2022-11-17T22:14:13.093Z,88.33
2022-11-17T22:16:45.839Z,88.49
2022-11-17T22:19:14.579Z,88.91
2022-11-17T22:21:43.091Z,89.66
2022-11-17T22:24:12.275Z,89.79
2022-11-17T22:26:41.327Z,89.97
2022-11-17T22:29:15.547Z,90.57
2022-11-17T22:31:42.922Z,91.21
2022-11-17T22:34:10.031Z,90.77
2022-11-17T22:36:36.874Z,89.93
2022-11-17T22:39:04.160Z,88.77
2022-11-17T22:41:31.381Z,88.16
2022-11-17T22:43:58.711Z,88.45
2022-11-17T22:46:28.058Z,89.17
2022-11-17T22:48:55.069Z,90.34
2022-11-17T22:51:40.579Z,90.22
2022-11-17T22:54:08.164Z,89.20
2022-11-17T22:56:35.944Z,88.26
2022-11-17T22:59:02.952Z,87.54
2022-11-17T23:01:29.831Z,87.67
2022-11-17T23:03:56.659Z,87.70
2022-11-17T23:06:24.276Z,87.44
2022-11-17T23:08:51.217Z,87.64
2022-11-17T23:14:08.022Z,86.93
2022-11-17T23:16:35.944Z,87.17
2022-11-17T23:19:03.720Z,87.40
2022-11-17T23:21:30.583Z,87.51
2022-11-17T23:23:57.403Z,88.66
2022-11-17T23:26:24.401Z,89.83
2022-11-17T23:28:51.270Z,90.52
2022-11-17T23:31:18.499Z,90.32
2022-11-17T23:33:47.347Z,90.04
2022-11-17T23:36:19.961Z,89.47
2022-11-17T23:38:48.282Z,89.22
2022-11-17T23:41:17.144Z,90.14
2022-11-17T23:43:43.984Z,89.80
2022-11-17T23:46:15.109Z,89.36
2022-11-17T23:48:43.012Z,89.33
2022-11-17T23:51:18.827Z,89.28
2022-11-17T23:53:46.965Z,89.86
2022-11-17T23:56:13.879Z,90.49
2022-11-17T23:58:41.328Z,89.75
